Aktualne dane pomiarowe

Uwaga, wersja testowa! Automatyczne pobieranie danych za pomocą narzędzi lub skryptów to umożliwiających jest zabronione.

Dane meteo z obszaru Polski uzyskane na podstawie depesz SYNOP pobieranych co godzinę z NWS. Najedź myszką na symbol przedstawiony w tabeli, aby uzyskać informacje co do jego znaczenia. Prosimy pamiętać, że to testowa wersja strony, która jeszcze nie jest ukończona. Stworzono również jest krótki FAQ dotyczący korzystania z tej podstrony Anomalie temperatury w chwili obecnej odniesione są do okresu referencyjnego 1951-2016. Okres ten będzie później zmieniony na 1981-2010. Kliknij ikonę aby pobrać plik CSV. Kliknij ikonę aby wygenerować mapę synoptyczną dla danego terminu.

Wybierz Datę:    

        

Wieluń (12455)

Dane terminowe dla wybranej stacji. Kliknij datę, aby otrzymać dane z tego terminu dla wszystkich stacji.

TemperaturaZachmurzenieWiatrCiśnienieOpadyPogoda
 Data t td wb tx tn tg rh  Nt Nl Cl Cm Ch ws wd g1 g2 wx mslp ppp ch 24h 12h t ww ww w1 w2  
2019-06-19 23:00:00 20.9 16.3 17.8--- 7521.0wx-wxwx2wx---1009.8 986.7 -0.3---------
2019-06-19 22:00:00 21.6 16.1 17.9--- 7124.0wx-wxwx3wx---1009.9 986.9 -0.2---------
2019-06-19 21:00:00 21.9 16.0 17.9--- 6923.0wxwxwxwxwx1wx--11010.2 987.2 0.5---------
2019-06-19 20:00:00 23.7 16.0 18.6--- 6227.0wxwxwxwxwx1wx--11009.9 987.0 0.4---wx---
2019-06-19 19:00:00 25.1 16.5 19.4--- 5921.0wxwxwxwxwx2wx--21009.8 987.1 0.5---------
2019-06-19 18:00:00 28.2 12.9 18.8 30.8 21.4- 3930.0wxwxwxwxwx1wx--11009.2 986.7 -0.2- 0.012------
2019-06-19 17:00:00 27.8 12.2 18.3--- 3825.0wxwxwxwxwx1wx--11009.1 986.6 -1.0---------
2019-06-19 16:00:00 29.2 10.3 18.0--- 3140.0wxwxwxwxwx1wx--11009.0 986.6 -1.4---------
2019-06-19 15:00:00 30.7 9.6 18.2--- 2730.0wxwxwxwxwx2wx---1009.2 986.9 -1.7---------
2019-06-19 14:00:00 30.2 9.7 18.1--- 2830.0wxwxwxwxwx1wx--11010.0 987.6 -1.5---------
2019-06-19 13:00:00 29.7 10.8 18.4--- 3129.0wxwxwxwxwx2wx--21010.4 988.0 -1.6---------
2019-06-19 12:00:00 29.2 12.2 18.8--- 3528.0wxwxwxwxwx2wx--21011.1 988.6 -1.4- 0.06------
2019-06-19 11:00:00 28.4 13.1 19.0--- 3922.0wxwxwxwx2wx--21011.6 989.1 -1.3---------
2019-06-19 10:00:00 27.6 12.0 18.1--- 3822.0wxwxwxwx2wx--21012.2 989.6 -1.1---------
2019-06-19 09:00:00 26.4 14.8 19.0--- 4912.0wxwxwxwxwx2wx--21012.7 990.0 -1.1---------
2019-06-19 08:00:00 24.5 16.0 18.9--- 5918.0wxwxwxwx3wx---1013.3 990.4 -0.8---------
2019-06-19 07:00:00 23.2 17.2 19.1--- 6912.0wx-wxwx2wx--21013.7 990.7 -0.6---------
2019-06-19 06:00:00 21.4 16.8 18.2 23.0 15.8 12 7515.0wx-wxwx2wx--21014.2 991.1 -0.2- 0.012----- 10.2
2019-06-19 05:00:00 19.1 15.8 16.8--- 8116.0wx-wxwx2wx--21014.5 991.2 -0.5---------
2019-06-19 04:00:00 17.2 14.7 15.5--- 8519.0wx-wx2wx--21014.8 991.3 -0.7---------
2019-06-19 03:00:00 15.9 13.7 14.4--- 8717.0wx-wx1wx---1014.9 991.3 -0.9---------
2019-06-19 02:00:00 16.1 13.9 14.6--- 8720.0wx-wx1wx--11015.3 991.7 -0.8---------
2019-06-19 01:00:00 16.7 14.0 14.8--- 8424.0wx-wx1wx--11015.5 992.0 -1.1---------
2019-06-19 00:00:00 17.2 14.3 15.2--- 8327.0wx-wx2wx--21015.7 992.2 -1.3- 0.06------
2019-06-18 23:00:00 18.1 14.4 15.6--- 7930.0wx-wx1wx--11015.9 992.5 -1.1---------
2019-06-18 22:00:00 18.5 14.2 15.6--- 7630.0wx-wx2wx---1016.5 993.1 -0.2---------
2019-06-18 21:00:00 19.0 13.8 15.6--- 7228.0wx-wxwx1wx--11016.9 993.5 0.5---------
2019-06-18 20:00:00 20.2 13.6 15.9--- 6630.0wx-wxwx2wx--21016.9 993.6 0.5---------
2019-06-18 19:00:00 21.3 13.7 16.4--- 6235.0wxwxwxwxwx2wx--21016.5 993.3 0.0---------
2019-06-18 18:00:00 23.0 13.5 17.0 26.1 18.4- 5535.0wxwxwxwxwx2wx--21016.0 993.0 -0.8- 0.012------
2019-06-18 17:00:00 25.2 12.8 17.6--- 4635.0wxwxwxwx3wx---1016.0 993.1 -1.2---------
2019-06-18 16:00:00 24.9 12.5 17.3--- 4635.0wxwxwxwx3wx--31016.2 993.3 -1.6---------
2019-06-18 15:00:00 25.7 11.5 17.2--- 4140.0wxwxwxwx3wx---1016.7 993.8 -1.7---------
2019-06-18 14:00:00 25.3 11.5 17.0--- 4235.0wxwxwxwx3wx--31017.2 994.3 -1.7---------
2019-06-18 13:00:00 25.5 11.3 17.0--- 4130.0wxwxwxwx3wx--31017.8 994.9 -1.5---------
2019-06-18 12:00:00 24.7 11.6 16.8--- 4430.0wxwxwxwx3wx--31018.5 995.5 -1.3- 0.06------
2019-06-18 11:00:00 24.1 11.4 16.4--- 4530.0wxwxwxwx3wx--31019.0 996.0 -1.1---------
2019-06-18 10:00:00 23.9 12.5 16.9--- 4930.0wxwxwxwx3wx--31019.5 996.4 -0.9---------
2019-06-18 09:00:00 22.7 13.5 16.9--- 5635.0wxwxwxwx2wx--21020.0 996.8 -0.7---------
2019-06-18 08:00:00 21.9 14.0 16.8--- 6130.0wxwxwxwx3wx--31020.3 997.1 -0.4---------
2019-06-18 07:00:00 20.6 14.0 16.3--- 6623.0wxwxwx2wx---1020.6 997.3 0.0---------
2019-06-18 06:00:00 18.6 13.5 15.2 22.8 13.0 10 7228.0wx-wx3wx--31021.0 997.5 0.2- 0.012----- 15.2
2019-06-18 05:00:00 16.2 12.2 13.6--- 7725.0wx-wx2wx--21021.2 997.5 0.2---------
2019-06-18 04:00:00 15.1 11.7 12.8--- 8012.0wx-wx2wx--21021.1 997.3 0.0---------
2019-06-18 03:00:00 14.3 12.2 12.8--- 8722.0wx-wx2wx--21021.2 997.3 -0.4---------
2019-06-18 02:00:00 13.3 11.5 12.0--- 8917.0wx-wx1wx---1021.2 997.3 -0.5---------
2019-06-18 01:00:00 13.2 11.1 11.8--- 8723.0wx-wx1wx---1021.3 997.3 -0.4---------
2019-06-18 00:00:00 14.0 11.2 12.1--- 8330.0wx-wx1wx--11021.6 997.7 0.1- 0.06------
1.7 ms

 

Print Friendly, PDF & Email